Alplaus, New York
Current Conditions -  °F | °C
As of 7:51 AM on Thursday 23 Oct 2014 (Local Time) from KALB Reporting Station
Moderate Rain Moderate Rain  
Wind Chill: 42°   Ceiling: 900
Heat Index: 46°   Visibility: 4mi
Dew Point: 43°   Wind: 8mph
Humidity: 89%   Direction: 10°N
Pressure: 29.87"   Gusts: NA
Location:  42.86°N, 73.9°W
Report Text: KALB 231151Z 01007KT 4SM RA BR BKN009 BKN013 OVC020 08/06 A2987 RMK AO2 SLP116 P0016 60078 70087 T00780061 10094 20078 51002
Loading
Personal Weather Stations






























Interactive Weather Map New forecast layout! Learn more

10-Day Weather Forecast

Advertisements
Track Severe Weather on mobile